Terminal Aerodrome Forecast
Issued by NWS Caribou, ME

Home | Current Version | Previous Version | Text Only | Print | Product List | Glossary On
Versions: 1 2 3 4 5 6 7 8 9 10 11 12 13 14 15 16 17 18
000
FTUS41 KCAR 282300
TAFBGR
TAF
KBGR 282320Z 2900/2924 13008KT 6SM BR OVC008
     FM290300 14007KT 1SM BR OVC005
     FM290700 16006KT 1/2SM FG VV002
     FM291200 22005KT P6SM BKN003
     FM291400 23006KT P6SM SCT015 BKN070=

USA.gov is the U.S. government's official web portal to all federal, state and local government web resources and services.